sensor_id;sensor_type;location;lat;lon;timestamp;pressure;altitude;pressure_sealevel;temperature;humidity
24858;BME280;12935;50.782;6.074;2022-10-17T00:01:05;99586.28;;;18.40;100.00
24858;BME280;12935;50.782;6.074;2022-10-17T00:03:32;99586.16;;;18.44;100.00
24858;BME280;12935;50.782;6.074;2022-10-17T00:05:57;99578.75;;;18.41;100.00
24858;BME280;12935;50.782;6.074;2022-10-17T00:08:23;99575.66;;;18.39;100.00
24858;BME280;12935;50.782;6.074;2022-10-17T00:11:00;99583.38;;;18.44;100.00
24858;BME280;12935;50.782;6.074;2022-10-17T00:13:25;99576.19;;;18.46;100.00
24858;BME280;12935;50.782;6.074;2022-10-17T00:15:51;99581.72;;;18.46;100.00
24858;BME280;12935;50.782;6.074;2022-10-17T00:18:17;99578.94;;;18.46;100.00
24858;BME280;12935;50.782;6.074;2022-10-17T00:20:42;99567.56;;;18.44;100.00
24858;BME280;12935;50.782;6.074;2022-10-17T00:23:07;99577.72;;;18.47;100.00
24858;BME280;12935;50.782;6.074;2022-10-17T00:25:33;99576.97;;;18.47;100.00
24858;BME280;12935;50.782;6.074;2022-10-17T00:27:58;99581.38;;;18.44;100.00
24858;BME280;12935;50.782;6.074;2022-10-17T00:30:23;99578.19;;;18.46;100.00
24858;BME280;12935;50.782;6.074;2022-10-17T00:32:48;99564.44;;;18.42;100.00
24858;BME280;12935;50.782;6.074;2022-10-17T00:35:14;99572.31;;;18.44;100.00
24858;BME280;12935;50.782;6.074;2022-10-17T00:37:39;99566.78;;;18.44;100.00
24858;BME280;12935;50.782;6.074;2022-10-17T00:40:05;99575.06;;;18.44;100.00
24858;BME280;12935;50.782;6.074;2022-10-17T00:42:31;99579.53;;;18.41;100.00
24858;BME280;12935;50.782;6.074;2022-10-17T00:45:11;99581.53;;;18.41;100.00
24858;BME280;12935;50.782;6.074;2022-10-17T00:47:38;99599.34;;;18.40;100.00
24858;BME280;12935;50.782;6.074;2022-10-17T00:50:05;99581.19;;;18.39;100.00
24858;BME280;12935;50.782;6.074;2022-10-17T00:52:31;99585.94;;;18.38;100.00
24858;BME280;12935;50.782;6.074;2022-10-17T00:57:36;99580.94;;;18.46;100.00
24858;BME280;12935;50.782;6.074;2022-10-17T01:00:05;99582.06;;;18.48;100.00
24858;BME280;12935;50.782;6.074;2022-10-17T01:02:32;99578.28;;;18.55;100.00
24858;BME280;12935;50.782;6.074;2022-10-17T01:04:58;99575.19;;;18.53;100.00
24858;BME280;12935;50.782;6.074;2022-10-17T01:07:24;99573.31;;;18.50;100.00
24858;BME280;12935;50.782;6.074;2022-10-17T01:09:49;99581.16;;;18.51;100.00
24858;BME280;12935;50.782;6.074;2022-10-17T01:17:45;99576.41;;;18.52;100.00
24858;BME280;12935;50.782;6.074;2022-10-17T01:22:46;99575.97;;;18.53;100.00
24858;BME280;12935;50.782;6.074;2022-10-17T01:30:55;99576.06;;;18.50;100.00
24858;BME280;12935;50.782;6.074;2022-10-17T01:33:40;99577.97;;;18.53;100.00
24858;BME280;12935;50.782;6.074;2022-10-17T01:36:11;99577.97;;;18.53;100.00
24858;BME280;12935;50.782;6.074;2022-10-17T01:38:58;99571.66;;;18.52;100.00
24858;BME280;12935;50.782;6.074;2022-10-17T01:44:21;99576.84;;;18.50;100.00
24858;BME280;12935;50.782;6.074;2022-10-17T01:46:50;99574.84;;;18.51;100.00
24858;BME280;12935;50.782;6.074;2022-10-17T01:49:22;99580.94;;;18.46;100.00
24858;BME280;12935;50.782;6.074;2022-10-17T01:51:53;99579.63;;;18.50;100.00
24858;BME280;12935;50.782;6.074;2022-10-17T01:54:34;99568.22;;;18.48;100.00
24858;BME280;12935;50.782;6.074;2022-10-17T01:57:03;99581.59;;;18.50;100.00
24858;BME280;12935;50.782;6.074;2022-10-17T01:59:37;99561.47;;;18.49;100.00
24858;BME280;12935;50.782;6.074;2022-10-17T02:02:05;99570.31;;;18.44;100.00
24858;BME280;12935;50.782;6.074;2022-10-17T02:04:31;99565.03;;;18.37;100.00
24858;BME280;12935;50.782;6.074;2022-10-17T02:07:05;99563.47;;;18.36;100.00
24858;BME280;12935;50.782;6.074;2022-10-17T02:09:30;99557.50;;;18.38;100.00
24858;BME280;12935;50.782;6.074;2022-10-17T02:20:59;99563.94;;;18.22;100.00
24858;BME280;12935;50.782;6.074;2022-10-17T02:29:01;99565.03;;;18.12;100.00
24858;BME280;12935;50.782;6.074;2022-10-17T02:31:43;99562.94;;;18.03;100.00
24858;BME280;12935;50.782;6.074;2022-10-17T02:34:29;99562.06;;;18.06;100.00
24858;BME280;12935;50.782;6.074;2022-10-17T02:36:59;99566.59;;;18.00;100.00
24858;BME280;12935;50.782;6.074;2022-10-17T02:39:27;99566.25;;;17.98;100.00
24858;BME280;12935;50.782;6.074;2022-10-17T02:41:55;99570.13;;;18.01;100.00
24858;BME280;12935;50.782;6.074;2022-10-17T02:44:22;99568.59;;;18.00;100.00
24858;BME280;12935;50.782;6.074;2022-10-17T02:46:53;99562.06;;;17.94;100.00
24858;BME280;12935;50.782;6.074;2022-10-17T02:49:30;99571.34;;;18.00;100.00
24858;BME280;12935;50.782;6.074;2022-10-17T02:52:16;99569.78;;;17.99;100.00
24858;BME280;12935;50.782;6.074;2022-10-17T02:57:43;99563.59;;;17.95;100.00
24858;BME280;12935;50.782;6.074;2022-10-17T03:00:12;99573.44;;;17.96;100.00
24858;BME280;12935;50.782;6.074;2022-10-17T03:02:44;99567.72;;;17.90;100.00
24858;BME280;12935;50.782;6.074;2022-10-17T03:05:11;99566.69;;;17.97;100.00
24858;BME280;12935;50.782;6.074;2022-10-17T03:07:37;99572.47;;;17.90;100.00
24858;BME280;12935;50.782;6.074;2022-10-17T03:10:03;99569.13;;;17.95;100.00
24858;BME280;12935;50.782;6.074;2022-10-17T03:12:29;99572.22;;;17.97;100.00
24858;BME280;12935;50.782;6.074;2022-10-17T03:14:54;99569.13;;;17.95;100.00
24858;BME280;12935;50.782;6.074;2022-10-17T03:17:20;99555.97;;;17.86;100.00
24858;BME280;12935;50.782;6.074;2022-10-17T03:19:45;99580.53;;;17.97;100.00
24858;BME280;12935;50.782;6.074;2022-10-17T03:22:10;99572.03;;;17.91;100.00
24858;BME280;12935;50.782;6.074;2022-10-17T03:24:36;99572.47;;;17.90;100.00
24858;BME280;12935;50.782;6.074;2022-10-17T03:27:01;99569.59;;;17.93;100.00
24858;BME280;12935;50.782;6.074;2022-10-17T03:29:26;99587.84;;;17.91;100.00
24858;BME280;12935;50.782;6.074;2022-10-17T03:31:51;99585.84;;;17.91;100.00
24858;BME280;12935;50.782;6.074;2022-10-17T03:34:17;99582.50;;;17.83;100.00
24858;BME280;12935;50.782;6.074;2022-10-17T03:36:43;99589.81;;;17.90;100.00
24858;BME280;12935;50.782;6.074;2022-10-17T03:39:08;99591.81;;;17.90;100.00
24858;BME280;12935;50.782;6.074;2022-10-17T03:41:34;99590.59;;;17.91;100.00
24858;BME280;12935;50.782;6.074;2022-10-17T03:43:59;99593.13;;;17.85;100.00
24858;BME280;12935;50.782;6.074;2022-10-17T03:46:25;99597.88;;;17.84;100.00
24858;BME280;12935;50.782;6.074;2022-10-17T03:48:50;99600.75;;;17.81;100.00
24858;BME280;12935;50.782;6.074;2022-10-17T03:51:15;99600.31;;;17.82;100.00
24858;BME280;12935;50.782;6.074;2022-10-17T03:53:40;99598.31;;;17.83;100.00
24858;BME280;12935;50.782;6.074;2022-10-17T03:56:14;99600.22;;;17.86;100.00
24858;BME280;12935;50.782;6.074;2022-10-17T03:58:41;99598.66;;;17.85;100.00
24858;BME280;12935;50.782;6.074;2022-10-17T04:01:08;99596.66;;;17.85;100.00
24858;BME280;12935;50.782;6.074;2022-10-17T04:03:34;99596.75;;;17.82;100.00
24858;BME280;12935;50.782;6.074;2022-10-17T04:06:00;99588.28;;;17.89;100.00
24858;BME280;12935;50.782;6.074;2022-10-17T04:08:27;99583.63;;;17.86;100.00
24858;BME280;12935;50.782;6.074;2022-10-17T04:11:00;99590.78;;;17.83;100.00
24858;BME280;12935;50.782;6.074;2022-10-17T04:13:26;99598.31;;;17.83;100.00
24858;BME280;12935;50.782;6.074;2022-10-17T04:15:54;99593.13;;;17.85;100.00
24858;BME280;12935;50.782;6.074;2022-10-17T04:18:19;99600.53;;;17.88;100.00
24858;BME280;12935;50.782;6.074;2022-10-17T04:20:44;99595.44;;;17.86;100.00
24858;BME280;12935;50.782;6.074;2022-10-17T04:23:10;99611.84;;;17.94;100.00
24858;BME280;12935;50.782;6.074;2022-10-17T04:25:35;99594.91;;;17.92;100.00
24858;BME280;12935;50.782;6.074;2022-10-17T04:28:00;99601.09;;;17.96;100.00
24858;BME280;12935;50.782;6.074;2022-10-17T04:30:25;99599.44;;;17.98;100.00
24858;BME280;12935;50.782;6.074;2022-10-17T04:32:51;99597.56;;;17.95;100.00
24858;BME280;12935;50.782;6.074;2022-10-17T04:35:16;99597.00;;;18.00;100.00
24858;BME280;12935;50.782;6.074;2022-10-17T04:37:41;99597.00;;;18.00;100.00
24858;BME280;12935;50.782;6.074;2022-10-17T04:40:07;99597.78;;;18.01;100.00
24858;BME280;12935;50.782;6.074;2022-10-17T04:42:32;99600.09;;;18.02;100.00
24858;BME280;12935;50.782;6.074;2022-10-17T04:44:58;99617.38;;;18.06;100.00
24858;BME280;12935;50.782;6.074;2022-10-17T04:47:23;99604.53;;;18.00;100.00
24858;BME280;12935;50.782;6.074;2022-10-17T04:49:48;99611.16;;;18.02;100.00
24858;BME280;12935;50.782;6.074;2022-10-17T04:52:13;99615.38;;;18.07;100.00
24858;BME280;12935;50.782;6.074;2022-10-17T04:54:39;99616.50;;;18.09;100.00
24858;BME280;12935;50.782;6.074;2022-10-17T04:57:04;99618.50;;;18.09;100.00
24858;BME280;12935;50.782;6.074;2022-10-17T04:59:29;99624.31;;;18.11;100.00
24858;BME280;12935;50.782;6.074;2022-10-17T05:01:55;99622.03;;;18.09;100.00
24858;BME280;12935;50.782;6.074;2022-10-17T05:04:20;99623.69;;;18.07;100.00
24858;BME280;12935;50.782;6.074;2022-10-17T05:06:46;99633.19;;;18.06;100.00
24858;BME280;12935;50.782;6.074;2022-10-17T05:09:11;99628.53;;;18.03;100.00
24858;BME280;12935;50.782;6.074;2022-10-17T05:11:36;99634.50;;;18.01;100.00
24858;BME280;12935;50.782;6.074;2022-10-17T05:14:01;99634.84;;;18.03;100.00
24858;BME280;12935;50.782;6.074;2022-10-17T05:16:28;99631.31;;;18.03;100.00
24858;BME280;12935;50.782;6.074;2022-10-17T05:18:55;99639.25;;;18.01;100.00
24858;BME280;12935;50.782;6.074;2022-10-17T05:21:23;99638.03;;;18.02;100.00
24858;BME280;12935;50.782;6.074;2022-10-17T05:23:48;99630.63;;;17.99;100.00
24858;BME280;12935;50.782;6.074;2022-10-17T05:26:14;99636.72;;;17.94;100.00
24858;BME280;12935;50.782;6.074;2022-10-17T05:28:39;99642.03;;;18.01;100.00
24858;BME280;12935;50.782;6.074;2022-10-17T05:31:06;99634.06;;;18.03;100.00
24858;BME280;12935;50.782;6.074;2022-10-17T05:33:32;99632.06;;;18.03;100.00
24858;BME280;12935;50.782;6.074;2022-10-17T05:35:58;99642.38;;;18.03;100.00
24858;BME280;12935;50.782;6.074;2022-10-17T05:38:24;99647.44;;;18.04;100.00
24858;BME280;12935;50.782;6.074;2022-10-17T05:40:50;99650.75;;;17.99;100.00
24858;BME280;12935;50.782;6.074;2022-10-17T05:43:15;99653.97;;;17.98;100.00
24858;BME280;12935;50.782;6.074;2022-10-17T05:45:41;99639.03;;;17.95;100.00
24858;BME280;12935;50.782;6.074;2022-10-17T05:48:06;99643.91;;;17.91;100.00
24858;BME280;12935;50.782;6.074;2022-10-17T05:50:33;99651.31;;;17.94;100.00
24858;BME280;12935;50.782;6.074;2022-10-17T05:52:58;99644.53;;;17.95;100.00
24858;BME280;12935;50.782;6.074;2022-10-17T05:55:23;99645.44;;;17.92;100.00
24858;BME280;12935;50.782;6.074;2022-10-17T05:57:49;99640.47;;;17.87;100.00
24858;BME280;12935;50.782;6.074;2022-10-17T06:00:17;99644.00;;;17.87;100.00
24858;BME280;12935;50.782;6.074;2022-10-17T06:02:42;99647.09;;;17.90;100.00
24858;BME280;12935;50.782;6.074;2022-10-17T06:05:09;99634.94;;;17.87;100.00
24858;BME280;12935;50.782;6.074;2022-10-17T06:07:35;99643.31;;;17.83;100.00
24858;BME280;12935;50.782;6.074;2022-10-17T06:10:00;99643.66;;;17.85;100.00
24858;BME280;12935;50.782;6.074;2022-10-17T06:12:25;99642.09;;;17.84;100.00
24858;BME280;12935;50.782;6.074;2022-10-17T06:14:51;99633.91;;;17.81;100.00
24858;BME280;12935;50.782;6.074;2022-10-17T06:17:16;99652.03;;;17.82;100.00
24858;BME280;12935;50.782;6.074;2022-10-17T06:19:41;99656.38;;;17.83;100.00
24858;BME280;12935;50.782;6.074;2022-10-17T06:22:08;99659.56;;;17.81;100.00
24858;BME280;12935;50.782;6.074;2022-10-17T06:24:33;99668.53;;;17.85;100.00
24858;BME280;12935;50.782;6.074;2022-10-17T06:26:59;99672.84;;;17.86;100.00
24858;BME280;12935;50.782;6.074;2022-10-17T06:29:24;99672.75;;;17.90;100.00
24858;BME280;12935;50.782;6.074;2022-10-17T06:31:50;99672.84;;;17.86;100.00
24858;BME280;12935;50.782;6.074;2022-10-17T06:34:15;99684.59;;;17.91;100.00
24858;BME280;12935;50.782;6.074;2022-10-17T06:36:41;99685.59;;;17.97;100.00
24858;BME280;12935;50.782;6.074;2022-10-17T06:39:06;99683.06;;;18.02;100.00
24858;BME280;12935;50.782;6.074;2022-10-17T06:41:31;99694.03;;;18.06;100.00
24858;BME280;12935;50.782;6.074;2022-10-17T06:43:56;99684.38;;;18.10;100.00
24858;BME280;12935;50.782;6.074;2022-10-17T06:46:22;99678.44;;;18.12;100.00
24858;BME280;12935;50.782;6.074;2022-10-17T06:48:51;99684.97;;;18.18;100.00
24858;BME280;12935;50.782;6.074;2022-10-17T06:51:16;99677.88;;;18.17;100.00
24858;BME280;12935;50.782;6.074;2022-10-17T06:53:42;99678.56;;;18.21;100.00
24858;BME280;12935;50.782;6.074;2022-10-17T06:56:08;99681.66;;;18.23;100.00
24858;BME280;12935;50.782;6.074;2022-10-17T06:58:37;99672.94;;;18.25;100.00
24858;BME280;12935;50.782;6.074;2022-10-17T07:01:07;99666.47;;;18.15;100.00
24858;BME280;12935;50.782;6.074;2022-10-17T07:03:33;99679.00;;;18.32;100.00
24858;BME280;12935;50.782;6.074;2022-10-17T07:05:58;99675.91;;;18.30;100.00
24858;BME280;12935;50.782;6.074;2022-10-17T07:08:24;99689.19;;;18.35;100.00
24858;BME280;12935;50.782;6.074;2022-10-17T07:10:50;99682.78;;;18.38;100.00
24858;BME280;12935;50.782;6.074;2022-10-17T07:13:17;99692.19;;;18.41;100.00
24858;BME280;12935;50.782;6.074;2022-10-17T07:15:42;99681.56;;;18.39;100.00
24858;BME280;12935;50.782;6.074;2022-10-17T07:18:08;99692.06;;;18.44;100.00
24858;BME280;12935;50.782;6.074;2022-10-17T07:20:34;99711.56;;;18.53;100.00
24858;BME280;12935;50.782;6.074;2022-10-17T07:22:59;99705.94;;;18.57;100.00
24858;BME280;12935;50.782;6.074;2022-10-17T07:25:24;99706.47;;;18.52;100.00
24858;BME280;12935;50.782;6.074;2022-10-17T07:27:51;99714.34;;;18.53;100.00
24858;BME280;12935;50.782;6.074;2022-10-17T07:30:17;99719.44;;;18.55;100.00
24858;BME280;12935;50.782;6.074;2022-10-17T07:32:42;99721.41;;;18.54;100.00
24858;BME280;12935;50.782;6.074;2022-10-17T07:35:09;99734.72;;;18.60;100.00
24858;BME280;12935;50.782;6.074;2022-10-17T07:37:35;99732.97;;;18.66;100.00
24858;BME280;12935;50.782;6.074;2022-10-17T07:40:00;99742.13;;;18.75;100.00
24858;BME280;12935;50.782;6.074;2022-10-17T07:42:26;99749.13;;;18.80;100.00
24858;BME280;12935;50.782;6.074;2022-10-17T07:44:52;99751.53;;;18.90;100.00
24858;BME280;12935;50.782;6.074;2022-10-17T07:47:18;99752.13;;;18.85;100.00
24858;BME280;12935;50.782;6.074;2022-10-17T07:49:43;99761.41;;;18.91;100.00
24858;BME280;12935;50.782;6.074;2022-10-17T07:52:13;99770.72;;;18.98;100.00
24858;BME280;12935;50.782;6.074;2022-10-17T07:54:39;99777.25;;;19.04;100.00
24858;BME280;12935;50.782;6.074;2022-10-17T07:57:05;99765.41;;;19.03;100.00
24858;BME280;12935;50.782;6.074;2022-10-17T07:59:35;99784.22;;;18.96;100.00
24858;BME280;12935;50.782;6.074;2022-10-17T08:02:01;99770.63;;;19.01;100.00
24858;BME280;12935;50.782;6.074;2022-10-17T08:04:27;99761.84;;;18.90;100.00
24858;BME280;12935;50.782;6.074;2022-10-17T08:06:53;99768.81;;;18.95;100.00
24858;BME280;12935;50.782;6.074;2022-10-17T08:09:19;99772.59;;;19.01;100.00
24858;BME280;12935;50.782;6.074;2022-10-17T08:11:44;99766.50;;;19.06;100.00
24858;BME280;12935;50.782;6.074;2022-10-17T08:14:10;99772.59;;;19.13;100.00
24858;BME280;12935;50.782;6.074;2022-10-17T08:16:36;99781.22;;;19.15;100.00
24858;BME280;12935;50.782;6.074;2022-10-17T08:19:02;99780.22;;;19.22;100.00
24858;BME280;12935;50.782;6.074;2022-10-17T08:21:27;99806.69;;;19.23;100.00
24858;BME280;12935;50.782;6.074;2022-10-17T08:23:52;99798.81;;;19.21;100.00
24858;BME280;12935;50.782;6.074;2022-10-17T08:26:18;99808.13;;;19.27;100.00
24858;BME280;12935;50.782;6.074;2022-10-17T08:28:45;99811.78;;;19.24;100.00
24858;BME280;12935;50.782;6.074;2022-10-17T08:31:12;99805.81;;;19.26;100.00
24858;BME280;12935;50.782;6.074;2022-10-17T08:33:39;99821.19;;;19.40;100.00
24858;BME280;12935;50.782;6.074;2022-10-17T08:36:05;99807.00;;;19.38;100.00
24858;BME280;12935;50.782;6.074;2022-10-17T08:38:31;99820.75;;;19.54;100.00
24858;BME280;12935;50.782;6.074;2022-10-17T08:41:00;99821.06;;;19.69;100.00
24858;BME280;12935;50.782;6.074;2022-10-17T08:46:01;99822.94;;;20.06;100.00
24858;BME280;12935;50.782;6.074;2022-10-17T08:48:32;99809.72;;;20.10;100.00
24858;BME280;12935;50.782;6.074;2022-10-17T08:51:08;99835.78;;;20.13;100.00
24858;BME280;12935;50.782;6.074;2022-10-17T08:53:38;99834.47;;;20.05;100.00
24858;BME280;12935;50.782;6.074;2022-10-17T08:56:18;99856.06;;;19.88;100.00
24858;BME280;12935;50.782;6.074;2022-10-17T08:58:44;99843.53;;;19.83;100.00
24858;BME280;12935;50.782;6.074;2022-10-17T09:01:32;99851.63;;;19.90;100.00
24858;BME280;12935;50.782;6.074;2022-10-17T09:04:20;99854.66;;;20.05;100.00
24858;BME280;12935;50.782;6.074;2022-10-17T09:12:23;99861.84;;;20.15;100.00
24858;BME280;12935;50.782;6.074;2022-10-17T09:17:55;99871.09;;;20.12;100.00
24858;BME280;12935;50.782;6.074;2022-10-17T09:20:28;99860.00;;;20.00;100.00
24858;BME280;12935;50.782;6.074;2022-10-17T09:25:39;99884.91;;;20.25;100.00
24858;BME280;12935;50.782;6.074;2022-10-17T09:30:45;99878.63;;;20.12;100.00
24858;BME280;12935;50.782;6.074;2022-10-17T09:33:17;99883.25;;;20.15;100.00
24858;BME280;12935;50.782;6.074;2022-10-17T09:35:43;99874.25;;;20.23;100.00
24858;BME280;12935;50.782;6.074;2022-10-17T09:38:41;99885.41;;;20.32;100.00
24858;BME280;12935;50.782;6.074;2022-10-17T09:41:15;99878.53;;;20.37;100.00
24858;BME280;12935;50.782;6.074;2022-10-17T09:43:41;99889.41;;;20.44;100.00
24858;BME280;12935;50.782;6.074;2022-10-17T09:46:13;99885.91;;;20.53;100.00
24858;BME280;12935;50.782;6.074;2022-10-17T09:48:45;99891.66;;;20.58;100.00
24858;BME280;12935;50.782;6.074;2022-10-17T09:51:11;99891.19;;;20.38;100.00
24858;BME280;12935;50.782;6.074;2022-10-17T09:53:39;99876.63;;;20.34;100.00
24858;BME280;12935;50.782;6.074;2022-10-17T09:56:15;99880.53;;;20.37;100.00
24858;BME280;12935;50.782;6.074;2022-10-17T09:58:47;99908.53;;;20.29;100.00
24858;BME280;12935;50.782;6.074;2022-10-17T10:01:29;99918.97;;;20.25;100.00
24858;BME280;12935;50.782;6.074;2022-10-17T10:04:24;99921.88;;;20.22;100.00
24858;BME280;12935;50.782;6.074;2022-10-17T10:07:05;99913.53;;;20.22;100.00
24858;BME280;12935;50.782;6.074;2022-10-17T10:09:35;99914.66;;;20.24;100.00
24858;BME280;12935;50.782;6.074;2022-10-17T10:12:18;99902.16;;;20.07;100.00
24858;BME280;12935;50.782;6.074;2022-10-17T10:14:44;99908.22;;;20.15;100.00
24858;BME280;12935;50.782;6.074;2022-10-17T10:17:37;99902.81;;;20.11;100.00
24858;BME280;12935;50.782;6.074;2022-10-17T10:20:26;99888.06;;;20.14;100.00
24858;BME280;12935;50.782;6.074;2022-10-17T10:23:13;99886.63;;;20.10;100.00
24858;BME280;12935;50.782;6.074;2022-10-17T10:26:01;99877.25;;;20.16;100.00
24858;BME280;12935;50.782;6.074;2022-10-17T10:28:37;99876.75;;;20.09;100.00
24858;BME280;12935;50.782;6.074;2022-10-17T10:31:06;99886.63;;;20.10;100.00
24858;BME280;12935;50.782;6.074;2022-10-17T10:33:34;99890.34;;;20.16;100.00
24858;BME280;12935;50.782;6.074;2022-10-17T10:36:05;99909.53;;;20.23;100.00
24858;BME280;12935;50.782;6.074;2022-10-17T10:38:33;99910.25;;;20.14;100.00
24858;BME280;12935;50.782;6.074;2022-10-17T10:41:10;99909.72;;;20.07;100.00
24858;BME280;12935;50.782;6.074;2022-10-17T10:46:14;99908.88;;;20.19;100.00
24858;BME280;12935;50.782;6.074;2022-10-17T10:48:58;99909.22;;;20.21;100.00
24858;BME280;12935;50.782;6.074;2022-10-17T10:51:38;99925.03;;;20.33;100.00
24858;BME280;12935;50.782;6.074;2022-10-17T10:54:21;99925.78;;;20.46;100.00
24858;BME280;12935;50.782;6.074;2022-10-17T10:56:51;99937.66;;;20.59;100.00
24858;BME280;12935;50.782;6.074;2022-10-17T10:59:19;99934.59;;;20.66;100.00
24858;BME280;12935;50.782;6.074;2022-10-17T11:01:51;99948.28;;;20.83;100.00
24858;BME280;12935;50.782;6.074;2022-10-17T11:07:28;99956.38;;;20.90;100.00
24858;BME280;12935;50.782;6.074;2022-10-17T11:10:14;99969.88;;;21.00;100.00
24858;BME280;12935;50.782;6.074;2022-10-17T11:12:53;99970.97;;;21.03;100.00
24858;BME280;12935;50.782;6.074;2022-10-17T11:15:41;99968.97;;;21.04;100.00
24858;BME280;12935;50.782;6.074;2022-10-17T11:18:21;99976.00;;;20.95;100.00
24858;BME280;12935;50.782;6.074;2022-10-17T11:20:53;99996.50;;;20.89;100.00
24858;BME280;12935;50.782;6.074;2022-10-17T11:23:42;99996.66;;;20.94;100.00
24858;BME280;12935;50.782;6.074;2022-10-17T11:26:16;100007.00;;;20.94;100.00
24858;BME280;12935;50.782;6.074;2022-10-17T11:28:50;100000.97;;;21.08;100.00
24858;BME280;12935;50.782;6.074;2022-10-17T11:31:16;99999.56;;;21.13;100.00
24858;BME280;12935;50.782;6.074;2022-10-17T11:34:14;100012.06;;;21.30;100.00
24858;BME280;12935;50.782;6.074;2022-10-17T11:36:45;100007.75;;;21.29;100.00
24858;BME280;12935;50.782;6.074;2022-10-17T11:39:28;100007.03;;;21.38;100.00
24858;BME280;12935;50.782;6.074;2022-10-17T11:41:58;100018.47;;;21.40;100.00
24858;BME280;12935;50.782;6.074;2022-10-17T11:44:36;100025.72;;;21.37;100.00
24858;BME280;12935;50.782;6.074;2022-10-17T11:47:12;100017.97;;;21.32;100.00
24858;BME280;12935;50.782;6.074;2022-10-17T11:49:49;100002.63;;;21.27;100.00
24858;BME280;12935;50.782;6.074;2022-10-17T11:52:36;100012.41;;;21.32;100.00
24858;BME280;12935;50.782;6.074;2022-10-17T11:55:19;100008.81;;;21.10;100.00
24858;BME280;12935;50.782;6.074;2022-10-17T11:57:57;100018.53;;;21.05;100.00
24858;BME280;12935;50.782;6.074;2022-10-17T12:06:19;100031.13;;;21.19;100.00
24858;BME280;12935;50.782;6.074;2022-10-17T12:09:25;100035.38;;;21.11;100.00
24858;BME280;12935;50.782;6.074;2022-10-17T12:12:01;100030.47;;;21.15;100.00
24858;BME280;12935;50.782;6.074;2022-10-17T12:14:42;100035.13;;;21.18;100.00
24858;BME280;12935;50.782;6.074;2022-10-17T12:17:32;100037.31;;;21.01;100.00
24858;BME280;12935;50.782;6.074;2022-10-17T12:22:48;100041.41;;;20.87;100.00
24858;BME280;12935;50.782;6.074;2022-10-17T12:25:25;100041.00;;;20.98;100.00
24858;BME280;12935;50.782;6.074;2022-10-17T12:30:31;100035.28;;;20.92;100.00
24858;BME280;12935;50.782;6.074;2022-10-17T12:35:27;100045.84;;;20.85;100.00
24858;BME280;12935;50.782;6.074;2022-10-17T12:46:02;100041.78;;;20.77;100.00
24858;BME280;12935;50.782;6.074;2022-10-17T12:56:16;100057.28;;;20.87;100.00
24858;BME280;12935;50.782;6.074;2022-10-17T12:58:45;100055.94;;;20.91;100.00
24858;BME280;12935;50.782;6.074;2022-10-17T13:01:21;100053.97;;;20.79;100.00
24858;BME280;12935;50.782;6.074;2022-10-17T13:03:52;100058.44;;;20.77;100.00
24858;BME280;12935;50.782;6.074;2022-10-17T13:06:24;100064.44;;;20.75;100.00
24858;BME280;12935;50.782;6.074;2022-10-17T13:08:57;100062.00;;;20.77;100.00
24858;BME280;12935;50.782;6.074;2022-10-17T13:11:26;100053.53;;;20.81;100.00
24858;BME280;12935;50.782;6.074;2022-10-17T13:13:55;100061.84;;;20.81;100.00
24858;BME280;12935;50.782;6.074;2022-10-17T13:16:36;100065.91;;;20.67;100.00
24858;BME280;12935;50.782;6.074;2022-10-17T13:19:10;100057.94;;;20.56;100.00
24858;BME280;12935;50.782;6.074;2022-10-17T13:21:36;100061.94;;;20.55;100.00
24858;BME280;12935;50.782;6.074;2022-10-17T13:24:19;100072.59;;;20.57;100.00
24858;BME280;12935;50.782;6.074;2022-10-17T13:26:45;100065.38;;;20.59;100.00
24858;BME280;12935;50.782;6.074;2022-10-17T13:29:13;100068.03;;;20.50;100.00
24858;BME280;12935;50.782;6.074;2022-10-17T13:31:41;100074.19;;;20.45;100.00
24858;BME280;12935;50.782;6.074;2022-10-17T13:34:22;100085.59;;;20.60;100.00
24858;BME280;12935;50.782;6.074;2022-10-17T13:36:56;100079.78;;;20.67;100.00
24858;BME280;12935;50.782;6.074;2022-10-17T13:39:24;100088.13;;;20.67;100.00
24858;BME280;12935;50.782;6.074;2022-10-17T13:41:52;100084.19;;;20.43;100.00
24858;BME280;12935;50.782;6.074;2022-10-17T13:44:21;100078.25;;;20.53;100.00
24858;BME280;12935;50.782;6.074;2022-10-17T13:46:47;100089.16;;;20.48;100.00
24858;BME280;12935;50.782;6.074;2022-10-17T13:49:25;100088.38;;;20.60;100.00
24858;BME280;12935;50.782;6.074;2022-10-17T13:51:54;100095.25;;;20.55;100.00
24858;BME280;12935;50.782;6.074;2022-10-17T13:54:32;100100.03;;;20.55;100.00
24858;BME280;12935;50.782;6.074;2022-10-17T13:56:58;100098.69;;;20.47;100.00
24858;BME280;12935;50.782;6.074;2022-10-17T13:59:33;100109.47;;;20.57;100.00
24858;BME280;12935;50.782;6.074;2022-10-17T14:02:01;100106.25;;;20.46;100.00
24858;BME280;12935;50.782;6.074;2022-10-17T14:04:27;100118.56;;;20.20;100.00
24858;BME280;12935;50.782;6.074;2022-10-17T14:06:52;100123.91;;;20.27;100.00
24858;BME280;12935;50.782;6.074;2022-10-17T14:09:23;100120.69;;;20.28;100.00
24858;BME280;12935;50.782;6.074;2022-10-17T14:12:08;100133.81;;;20.41;100.00
24858;BME280;12935;50.782;6.074;2022-10-17T14:14:37;100125.03;;;20.42;100.00
24858;BME280;12935;50.782;6.074;2022-10-17T14:17:21;100134.78;;;20.34;100.00
24858;BME280;12935;50.782;6.074;2022-10-17T14:19:51;100144.25;;;20.37;100.00
24858;BME280;12935;50.782;6.074;2022-10-17T14:22:25;100139.97;;;20.32;100.00
24858;BME280;12935;50.782;6.074;2022-10-17T14:24:51;100141.97;;;20.31;100.00
24858;BME280;12935;50.782;6.074;2022-10-17T14:27:29;100153.31;;;20.24;100.00
24858;BME280;12935;50.782;6.074;2022-10-17T14:29:57;100153.88;;;20.19;100.00